Time;durP1;ratioP1;P1;durP2;ratioP2;P2;SDS_P1;SDS_P2;PMS_P1;PMS_P2;Temp;Humidity;BMP_temperature;BMP_pressure;BME280_temperature;BME280_humidity;BME280_pressure;Samples;Min_cycle;Max_cycle;Signal;HPM_P1;HPM_P2
2024/03/08 00:01:30;;;;;;;31.63;17.00;;;;;;;;;;4973536;28;20224;-70
2024/03/08 00:03:55;;;;;;;29.50;15.77;;;;;;;;;;4985703;28;20175;-69
2024/03/08 00:06:20;;;;;;;28.27;16.53;;;;;;;;;;4983906;28;20194;-70
2024/03/08 00:08:46;;;;;;;32.30;16.40;;;;;;;;;;4987911;28;20267;-69
2024/03/08 00:11:11;;;;;;;32.57;16.50;;;;;;;;;;4966293;28;20675;-70
2024/03/08 00:13:36;;;;;;;30.10;15.00;;;;;;;;;;4983795;28;20603;-70
2024/03/08 00:16:02;;;;;;;30.47;15.70;;;;;;;;;;4980227;28;20552;-70
2024/03/08 00:18:27;;;;;;;33.73;17.17;;;;;;;;;;4984935;28;20191;-70
2024/03/08 00:20:52;;;;;;;29.60;16.20;;;;;;;;;;4985450;28;20249;-69
2024/03/08 00:23:17;;;;;;;31.60;16.03;;;;;;;;;;4992474;28;20628;-69
2024/03/08 00:25:43;;;;;;;32.70;17.27;;;;;;;;;;4983833;28;20192;-70
2024/03/08 00:28:08;;;;;;;30.27;17.17;;;;;;;;;;4980052;28;20168;-70
2024/03/08 00:30:33;;;;;;;30.00;15.73;;;;;;;;;;4985486;28;20207;-69
2024/03/08 00:32:59;;;;;;;31.00;15.83;;;;;;;;;;4980451;28;20173;-70
2024/03/08 00:35:24;;;;;;;30.27;16.73;;;;;;;;;;4988742;28;20246;-70
2024/03/08 00:37:50;;;;;;;35.27;16.57;;;;;;;;;;4986956;28;20203;-69
2024/03/08 00:40:15;;;;;;;29.03;16.40;;;;;;;;;;4985613;28;20200;-69
2024/03/08 00:42:42;;;;;;;30.53;16.57;;;;;;;;;;4983220;28;20583;-69
2024/03/08 00:45:07;;;;;;;34.90;17.00;;;;;;;;;;4970529;28;20230;-70
2024/03/08 00:47:33;;;;;;;30.00;15.63;;;;;;;;;;4968418;28;20648;-69
2024/03/08 00:49:58;;;;;;;33.70;17.73;;;;;;;;;;4987783;28;20230;-69
2024/03/08 00:52:26;;;;;;;30.57;15.83;;;;;;;;;;4985465;28;20176;-69
2024/03/08 00:54:51;;;;;;;28.97;17.50;;;;;;;;;;4987844;28;20180;-69
2024/03/08 00:57:16;;;;;;;26.43;15.77;;;;;;;;;;4988046;28;20194;-70
2024/03/08 00:59:42;;;;;;;28.60;16.10;;;;;;;;;;4990622;28;20183;-69
2024/03/08 01:02:08;;;;;;;31.23;15.73;;;;;;;;;;4987125;28;20180;-70
2024/03/08 01:04:34;;;;;;;37.43;17.67;;;;;;;;;;4987513;28;20199;-68
2024/03/08 01:06:59;;;;;;;29.77;16.73;;;;;;;;;;4985827;28;20222;-69
2024/03/08 01:09:26;;;;;;;35.33;16.50;;;;;;;;;;4965759;28;20183;-71
2024/03/08 01:11:54;;;;;;;30.93;16.30;;;;;;;;;;4987312;28;20202;-69
2024/03/08 01:14:22;;;;;;;32.23;16.23;;;;;;;;;;4986751;28;20576;-67
2024/03/08 01:16:47;;;;;;;34.43;17.13;;;;;;;;;;4984990;28;20241;-69
2024/03/08 01:19:13;;;;;;;31.47;16.60;;;;;;;;;;4987250;28;20184;-69
2024/03/08 01:21:38;;;;;;;30.13;16.00;;;;;;;;;;4969239;28;20239;-69
2024/03/08 01:24:04;;;;;;;32.83;17.23;;;;;;;;;;4985321;28;20191;-69
2024/03/08 01:26:29;;;;;;;34.67;17.53;;;;;;;;;;4986453;28;20176;-70
2024/03/08 01:28:54;;;;;;;34.13;17.17;;;;;;;;;;4987310;28;20184;-69
2024/03/08 01:31:19;;;;;;;31.33;16.60;;;;;;;;;;4968801;28;20191;-70
2024/03/08 01:33:45;;;;;;;30.73;16.77;;;;;;;;;;4983964;28;20263;-69
2024/03/08 01:36:10;;;;;;;30.30;15.53;;;;;;;;;;4986551;28;20564;-68
2024/03/08 01:38:36;;;;;;;36.07;16.40;;;;;;;;;;4983559;28;20183;-69
2024/03/08 01:41:02;;;;;;;31.53;17.63;;;;;;;;;;4989461;28;20199;-71
2024/03/08 01:43:28;;;;;;;29.23;17.27;;;;;;;;;;4985439;28;20194;-70
2024/03/08 01:45:54;;;;;;;30.07;17.07;;;;;;;;;;4980559;28;20211;-70
2024/03/08 01:48:23;;;;;;;29.30;16.20;;;;;;;;;;4989136;28;20555;-70
2024/03/08 01:50:49;;;;;;;25.27;14.83;;;;;;;;;;4990701;28;20557;-71
2024/03/08 01:53:15;;;;;;;32.73;18.87;;;;;;;;;;4981233;28;20560;-68
2024/03/08 01:55:40;;;;;;;32.87;16.87;;;;;;;;;;4986048;28;20196;-70
2024/03/08 01:58:06;;;;;;;27.03;16.27;;;;;;;;;;4986766;28;20740;-70
2024/03/08 02:00:32;;;;;;;32.93;16.93;;;;;;;;;;4986578;28;20207;-71
2024/03/08 02:02:58;;;;;;;32.60;17.03;;;;;;;;;;4982708;28;20278;-69
2024/03/08 02:05:23;;;;;;;26.77;15.73;;;;;;;;;;4981584;28;20334;-70
2024/03/08 02:07:49;;;;;;;31.53;16.47;;;;;;;;;;4980339;28;20184;-70
2024/03/08 02:10:14;;;;;;;29.37;16.60;;;;;;;;;;4966115;28;20195;-69
2024/03/08 02:12:39;;;;;;;31.63;16.33;;;;;;;;;;4981151;28;20215;-70
2024/03/08 02:15:06;;;;;;;26.53;14.93;;;;;;;;;;4983367;28;20180;-69
2024/03/08 02:17:31;;;;;;;29.97;16.37;;;;;;;;;;4984595;28;20354;-69
2024/03/08 02:22:23;;;;;;;31.40;17.40;;;;;;;;;;4970478;28;20212;-72
2024/03/08 02:24:49;;;;;;;31.43;16.03;;;;;;;;;;4971570;28;20214;-72
2024/03/08 02:27:16;;;;;;;28.93;17.03;;;;;;;;;;4973270;28;20274;-72
2024/03/08 02:29:42;;;;;;;28.00;16.40;;;;;;;;;;4976578;28;20763;-72
2024/03/08 02:32:07;;;;;;;29.33;16.67;;;;;;;;;;4975136;28;20192;-73
2024/03/08 02:34:32;;;;;;;30.40;16.67;;;;;;;;;;4974253;28;20660;-72
2024/03/08 02:36:58;;;;;;;34.97;16.37;;;;;;;;;;4972611;28;20611;-72
2024/03/08 02:39:23;;;;;;;31.57;17.30;;;;;;;;;;4974404;28;20195;-72
2024/03/08 02:41:48;;;;;;;30.13;16.77;;;;;;;;;;4970310;28;20223;-72
2024/03/08 02:44:14;;;;;;;28.77;17.63;;;;;;;;;;4974939;28;20204;-72
2024/03/08 02:46:40;;;;;;;33.47;17.53;;;;;;;;;;4973810;28;20187;-72
2024/03/08 02:49:06;;;;;;;40.10;18.73;;;;;;;;;;4974561;28;20184;-72
2024/03/08 02:51:31;;;;;;;30.17;16.57;;;;;;;;;;4974147;28;20231;-72
2024/03/08 02:53:57;;;;;;;30.77;17.30;;;;;;;;;;4972112;28;20215;-72
2024/03/08 02:56:22;;;;;;;34.53;18.23;;;;;;;;;;4964498;28;20181;-72
2024/03/08 02:58:48;;;;;;;34.57;18.07;;;;;;;;;;4970457;28;20195;-73
2024/03/08 03:01:14;;;;;;;27.97;16.30;;;;;;;;;;4986260;28;20418;-73
2024/03/08 03:03:39;;;;;;;31.70;17.30;;;;;;;;;;4971574;28;20266;-72
2024/03/08 03:06:07;;;;;;;31.37;17.07;;;;;;;;;;4974179;28;20230;-72
2024/03/08 03:08:32;;;;;;;29.73;16.23;;;;;;;;;;4972504;28;20652;-73
2024/03/08 03:10:57;;;;;;;33.77;19.23;;;;;;;;;;4973713;28;20199;-72
2024/03/08 03:13:23;;;;;;;32.87;17.93;;;;;;;;;;4972091;28;20176;-72
2024/03/08 03:15:48;;;;;;;31.87;17.90;;;;;;;;;;4974290;28;20188;-73
2024/03/08 03:18:13;;;;;;;30.93;17.17;;;;;;;;;;4972190;28;20207;-72
2024/03/08 03:20:42;;;;;;;29.13;16.43;;;;;;;;;;4971088;28;20212;-72
2024/03/08 03:23:08;;;;;;;33.77;17.90;;;;;;;;;;4972828;28;20179;-72
2024/03/08 03:25:35;;;;;;;33.70;17.97;;;;;;;;;;4973053;28;20664;-72
2024/03/08 03:28:00;;;;;;;31.07;18.07;;;;;;;;;;4973033;28;20184;-73
2024/03/08 03:30:27;;;;;;;26.73;16.17;;;;;;;;;;4967727;28;20207;-72
2024/03/08 03:32:54;;;;;;;27.37;15.87;;;;;;;;;;4973411;28;20184;-73
2024/03/08 03:35:20;;;;;;;26.43;16.43;;;;;;;;;;4971359;28;20243;-72
2024/03/08 03:37:55;;;;;;;32.90;18.03;;;;;;;;;;4967523;28;20575;-72
2024/03/08 03:40:23;;;;;;;31.23;16.30;;;;;;;;;;4969880;28;20239;-72
2024/03/08 03:42:48;;;;;;;30.43;16.50;;;;;;;;;;4971627;28;20203;-72
2024/03/08 03:45:14;;;;;;;26.93;16.07;;;;;;;;;;4974058;28;20200;-72
2024/03/08 03:47:39;;;;;;;32.10;17.40;;;;;;;;;;4972740;28;20632;-72
2024/03/08 03:50:05;;;;;;;30.17;17.33;;;;;;;;;;4962515;28;20184;-72
2024/03/08 03:52:31;;;;;;;32.70;17.13;;;;;;;;;;4969932;28;20196;-73
2024/03/08 03:54:56;;;;;;;31.97;17.77;;;;;;;;;;4969784;28;20180;-72
2024/03/08 03:57:22;;;;;;;36.53;18.60;;;;;;;;;;4971723;28;20188;-72
2024/03/08 03:59:48;;;;;;;30.87;18.20;;;;;;;;;;4973534;28;20715;-72
2024/03/08 04:02:13;;;;;;;34.57;18.00;;;;;;;;;;4972930;28;20292;-72
2024/03/08 04:04:38;;;;;;;32.53;17.90;;;;;;;;;;4971175;28;20215;-73
2024/03/08 04:07:03;;;;;;;32.93;18.50;;;;;;;;;;4969240;28;20211;-72
2024/03/08 04:09:28;;;;;;;32.37;17.27;;;;;;;;;;4970617;28;20168;-72
2024/03/08 04:11:55;;;;;;;32.93;18.47;;;;;;;;;;4972119;28;20203;-72
2024/03/08 04:14:20;;;;;;;30.50;17.03;;;;;;;;;;4971288;28;20208;-72
2024/03/08 04:16:48;;;;;;;35.63;17.37;;;;;;;;;;4967222;28;20255;-72
2024/03/08 04:19:13;;;;;;;31.37;18.23;;;;;;;;;;4973045;28;20679;-72
2024/03/08 04:21:38;;;;;;;30.50;18.40;;;;;;;;;;4971086;28;20219;-72
2024/03/08 04:24:03;;;;;;;29.40;18.30;;;;;;;;;;4973493;28;20192;-72
2024/03/08 04:26:29;;;;;;;27.67;17.60;;;;;;;;;;4972252;28;20184;-72
2024/03/08 04:28:54;;;;;;;33.57;18.53;;;;;;;;;;4972394;28;20180;-72
2024/03/08 04:31:19;;;;;;;32.43;18.60;;;;;;;;;;4973183;28;20680;-72
2024/03/08 04:33:44;;;;;;;29.77;16.60;;;;;;;;;;4971386;28;20184;-72
2024/03/08 04:36:13;;;;;;;29.17;18.13;;;;;;;;;;4970097;28;20184;-72
2024/03/08 04:38:40;;;;;;;28.17;16.70;;;;;;;;;;4971786;28;20644;-72
2024/03/08 04:41:06;;;;;;;32.50;17.87;;;;;;;;;;4973200;28;20231;-72
2024/03/08 04:43:31;;;;;;;32.27;17.93;;;;;;;;;;4971692;28;20787;-72
2024/03/08 04:45:56;;;;;;;33.30;17.73;;;;;;;;;;4967455;28;20262;-72
2024/03/08 04:48:21;;;;;;;32.77;18.30;;;;;;;;;;4969909;28;20667;-72
2024/03/08 04:50:46;;;;;;;29.50;17.20;;;;;;;;;;4972009;28;20208;-72
2024/03/08 04:53:12;;;;;;;29.50;17.73;;;;;;;;;;4970964;28;20180;-72
2024/03/08 04:55:37;;;;;;;30.70;17.20;;;;;;;;;;4971803;28;20184;-72
2024/03/08 04:58:03;;;;;;;33.73;18.57;;;;;;;;;;4971290;28;20176;-73
2024/03/08 05:00:29;;;;;;;32.90;18.90;;;;;;;;;;4968982;28;20222;-72
2024/03/08 05:02:54;;;;;;;29.33;17.30;;;;;;;;;;4971318;28;20656;-73
2024/03/08 05:05:19;;;;;;;31.57;18.03;;;;;;;;;;4966864;28;20227;-73
2024/03/08 05:07:45;;;;;;;36.13;18.60;;;;;;;;;;4972310;28;20645;-72
2024/03/08 05:10:11;;;;;;;29.10;16.60;;;;;;;;;;4970431;28;20180;-72
2024/03/08 05:12:36;;;;;;;32.93;18.03;;;;;;;;;;4966624;28;20211;-72
2024/03/08 05:15:01;;;;;;;31.43;18.53;;;;;;;;;;4972198;28;20255;-73
2024/03/08 05:17:27;;;;;;;33.83;18.30;;;;;;;;;;4970383;28;20288;-73
2024/03/08 05:19:53;;;;;;;33.57;19.70;;;;;;;;;;4971654;28;20184;-72
2024/03/08 05:22:18;;;;;;;31.10;18.73;;;;;;;;;;4967136;28;20223;-72
2024/03/08 05:24:44;;;;;;;34.53;18.40;;;;;;;;;;4968723;28;20200;-72
2024/03/08 05:27:09;;;;;;;39.33;20.67;;;;;;;;;;4967011;28;20172;-73
2024/03/08 05:29:34;;;;;;;36.17;18.07;;;;;;;;;;4970946;28;20216;-73
2024/03/08 05:31:59;;;;;;;34.20;18.87;;;;;;;;;;4972058;28;20296;-72
2024/03/08 05:34:26;;;;;;;34.20;20.77;;;;;;;;;;4971725;28;20176;-72
2024/03/08 05:36:51;;;;;;;33.33;19.33;;;;;;;;;;4960523;28;20567;-72
2024/03/08 05:39:17;;;;;;;29.77;18.20;;;;;;;;;;4970221;28;20192;-72
2024/03/08 05:41:42;;;;;;;36.27;19.37;;;;;;;;;;4966101;28;20680;-73
2024/03/08 05:44:08;;;;;;;29.23;17.77;;;;;;;;;;4971465;28;20185;-72
2024/03/08 05:46:33;;;;;;;34.10;18.87;;;;;;;;;;4969627;28;20208;-72
2024/03/08 05:48:59;;;;;;;36.10;21.03;;;;;;;;;;4969767;28;20223;-73
2024/03/08 05:51:26;;;;;;;34.23;18.97;;;;;;;;;;4969210;28;20219;-74
2024/03/08 05:53:53;;;;;;;31.67;17.73;;;;;;;;;;4965237;28;20184;-73
2024/03/08 05:56:18;;;;;;;34.07;18.63;;;;;;;;;;4967415;28;20185;-73
2024/03/08 05:58:44;;;;;;;32.37;18.43;;;;;;;;;;4967724;28;20543;-73
2024/03/08 06:01:10;;;;;;;34.93;18.73;;;;;;;;;;4970623;28;20231;-73
2024/03/08 06:03:35;;;;;;;31.80;17.93;;;;;;;;;;4968861;28;20570;-73
2024/03/08 06:06:00;;;;;;;29.90;17.53;;;;;;;;;;4969096;28;20200;-73
2024/03/08 06:08:30;;;;;;;33.57;19.57;;;;;;;;;;4967885;28;20196;-74
2024/03/08 06:10:56;;;;;;;29.60;17.87;;;;;;;;;;4966386;28;20244;-73
2024/03/08 06:13:21;;;;;;;28.97;17.17;;;;;;;;;;4970134;28;20603;-73
2024/03/08 06:15:46;;;;;;;33.53;18.73;;;;;;;;;;4968638;28;20185;-73
2024/03/08 06:18:11;;;;;;;32.77;18.33;;;;;;;;;;4968225;28;20172;-73
2024/03/08 06:20:36;;;;;;;33.43;19.00;;;;;;;;;;4970294;28;20231;-73
2024/03/08 06:23:02;;;;;;;35.03;18.73;;;;;;;;;;4970268;28;20180;-73
2024/03/08 06:25:27;;;;;;;32.33;17.93;;;;;;;;;;4963096;28;20230;-74
2024/03/08 06:27:52;;;;;;;31.43;19.57;;;;;;;;;;4969835;28;20221;-73
2024/03/08 06:30:18;;;;;;;34.30;17.73;;;;;;;;;;4968102;28;20250;-73
2024/03/08 06:32:43;;;;;;;31.90;18.13;;;;;;;;;;4970729;28;20184;-73
2024/03/08 06:35:10;;;;;;;33.40;19.03;;;;;;;;;;4971294;28;20214;-73
2024/03/08 06:37:35;;;;;;;32.30;18.60;;;;;;;;;;4967000;28;20574;-73
2024/03/08 06:40:01;;;;;;;34.10;18.30;;;;;;;;;;4968465;28;20188;-73
2024/03/08 06:42:33;;;;;;;33.97;19.10;;;;;;;;;;4970317;28;20180;-73
2024/03/08 06:45:04;;;;;;;32.70;17.20;;;;;;;;;;4970082;28;20208;-73
2024/03/08 06:47:29;;;;;;;35.53;19.47;;;;;;;;;;4967919;28;20728;-73
2024/03/08 06:49:54;;;;;;;35.80;18.43;;;;;;;;;;4967368;28;20200;-73
2024/03/08 06:52:20;;;;;;;34.63;18.53;;;;;;;;;;4963384;28;20692;-74
2024/03/08 06:54:45;;;;;;;32.37;18.87;;;;;;;;;;4969380;28;20215;-73
2024/03/08 06:57:10;;;;;;;33.30;18.43;;;;;;;;;;4968817;28;20299;-73
2024/03/08 06:59:35;;;;;;;36.30;18.80;;;;;;;;;;4969266;28;20196;-74
2024/03/08 07:02:01;;;;;;;33.53;17.67;;;;;;;;;;4967867;28;20204;-74
2024/03/08 07:04:29;;;;;;;29.70;18.13;;;;;;;;;;4970444;28;20206;-74
2024/03/08 07:06:54;;;;;;;33.57;18.40;;;;;;;;;;4967614;28;20208;-73
2024/03/08 07:09:20;;;;;;;31.97;18.03;;;;;;;;;;4967389;28;20220;-73
2024/03/08 07:11:46;;;;;;;32.03;17.23;;;;;;;;;;4967686;28;20200;-73
2024/03/08 07:14:11;;;;;;;32.40;18.37;;;;;;;;;;4971747;28;20173;-74
2024/03/08 07:16:36;;;;;;;30.27;17.43;;;;;;;;;;4969893;28;20176;-73
2024/03/08 07:19:03;;;;;;;26.40;15.87;;;;;;;;;;4971199;28;20182;-73
2024/03/08 07:21:29;;;;;;;29.17;15.60;;;;;;;;;;4968963;28;20282;-73
2024/03/08 07:24:09;;;;;;;27.77;15.10;;;;;;;;;;4960544;28;20648;-74
2024/03/08 07:26:34;;;;;;;26.77;15.03;;;;;;;;;;4966282;28;21891;-74
2024/03/08 07:29:00;;;;;;;24.50;16.07;;;;;;;;;;4970135;28;20287;-73
2024/03/08 07:33:50;;;;;;;29.03;16.17;;;;;;;;;;4969656;28;20259;-74
2024/03/08 07:36:16;;;;;;;24.87;15.60;;;;;;;;;;4957555;28;20224;-73
2024/03/08 07:38:41;;;;;;;29.33;16.13;;;;;;;;;;4966512;28;20184;-73
2024/03/08 07:41:06;;;;;;;26.13;15.67;;;;;;;;;;4965802;28;20263;-74
2024/03/08 07:43:32;;;;;;;28.43;15.67;;;;;;;;;;4970623;28;20185;-73
2024/03/08 07:45:57;;;;;;;29.20;17.80;;;;;;;;;;4969858;28;20271;-73
2024/03/08 07:48:22;;;;;;;26.43;16.40;;;;;;;;;;4971663;28;20180;-74
2024/03/08 07:50:49;;;;;;;27.97;16.20;;;;;;;;;;4972785;28;20200;-73
2024/03/08 07:53:15;;;;;;;26.20;16.93;;;;;;;;;;4969529;28;20177;-73
2024/03/08 07:55:42;;;;;;;29.20;16.77;;;;;;;;;;4973100;28;20626;-73
2024/03/08 07:58:09;;;;;;;28.27;16.03;;;;;;;;;;4970474;28;20172;-73
2024/03/08 08:00:36;;;;;;;23.47;14.83;;;;;;;;;;4972882;28;20276;-73
2024/03/08 08:03:01;;;;;;;25.90;15.50;;;;;;;;;;4970438;28;20248;-73
2024/03/08 08:05:27;;;;;;;27.83;16.37;;;;;;;;;;4968229;28;20328;-73
2024/03/08 08:07:53;;;;;;;25.57;15.73;;;;;;;;;;4968736;28;20652;-74
2024/03/08 08:10:21;;;;;;;27.53;15.70;;;;;;;;;;4963866;28;20987;-74
2024/03/08 08:12:46;;;;;;;34.50;16.20;;;;;;;;;;4966947;28;20295;-74
2024/03/08 08:15:12;;;;;;;30.37;16.27;;;;;;;;;;4966831;28;20327;-74
2024/03/08 08:17:38;;;;;;;27.57;15.87;;;;;;;;;;4968497;28;20176;-73
2024/03/08 08:20:05;;;;;;;29.77;16.80;;;;;;;;;;4971546;28;20192;-73
2024/03/08 08:22:30;;;;;;;32.47;16.30;;;;;;;;;;4969176;28;20188;-73
2024/03/08 08:24:55;;;;;;;32.13;17.13;;;;;;;;;;4971434;28;20983;-71
2024/03/08 08:27:21;;;;;;;28.83;17.77;;;;;;;;;;4969966;28;20184;-71
2024/03/08 08:29:46;;;;;;;27.00;16.00;;;;;;;;;;4968447;28;20543;-71
2024/03/08 08:32:11;;;;;;;28.37;16.27;;;;;;;;;;4969687;28;20717;-71
2024/03/08 08:34:36;;;;;;;24.20;15.63;;;;;;;;;;4970308;28;20188;-72
2024/03/08 08:37:01;;;;;;;29.37;16.90;;;;;;;;;;4968735;28;20176;-72
2024/03/08 08:39:27;;;;;;;33.83;15.97;;;;;;;;;;4970784;28;20184;-72
2024/03/08 08:41:52;;;;;;;27.77;17.13;;;;;;;;;;4972448;28;20200;-72
2024/03/08 08:44:18;;;;;;;27.87;16.20;;;;;;;;;;4972075;28;20181;-72
2024/03/08 08:46:43;;;;;;;28.00;15.67;;;;;;;;;;4969768;28;20271;-72
2024/03/08 08:49:10;;;;;;;23.87;15.77;;;;;;;;;;4968259;28;20196;-72
2024/03/08 08:51:36;;;;;;;30.27;17.20;;;;;;;;;;4965828;28;20689;-71
2024/03/08 08:54:01;;;;;;;28.83;16.63;;;;;;;;;;4971932;28;20686;-72
2024/03/08 08:56:28;;;;;;;25.20;15.40;;;;;;;;;;4966725;28;20208;-71
2024/03/08 08:58:53;;;;;;;24.77;15.17;;;;;;;;;;4969550;28;20184;-72
2024/03/08 09:01:19;;;;;;;24.90;15.77;;;;;;;;;;4968284;28;20211;-72
2024/03/08 09:03:46;;;;;;;25.33;16.37;;;;;;;;;;4969836;28;20172;-73
2024/03/08 09:06:12;;;;;;;25.47;15.60;;;;;;;;;;4970116;28;20772;-73
2024/03/08 09:08:38;;;;;;;26.10;16.37;;;;;;;;;;4972226;28;20184;-72
2024/03/08 09:11:03;;;;;;;27.40;14.40;;;;;;;;;;4968379;28;20810;-73
2024/03/08 09:13:29;;;;;;;25.13;16.30;;;;;;;;;;4969896;28;20176;-72
2024/03/08 09:15:54;;;;;;;27.33;15.97;;;;;;;;;;4969864;28;20189;-73
2024/03/08 09:18:19;;;;;;;24.63;15.50;;;;;;;;;;4970059;28;20195;-73
2024/03/08 09:20:45;;;;;;;25.73;15.43;;;;;;;;;;4971640;28;20302;-73
2024/03/08 09:23:10;;;;;;;26.47;15.70;;;;;;;;;;4969683;28;20679;-73
2024/03/08 09:25:35;;;;;;;22.47;14.93;;;;;;;;;;4972276;28;20401;-73
2024/03/08 09:28:00;;;;;;;22.33;15.17;;;;;;;;;;4969146;28;20264;-72
2024/03/08 09:30:26;;;;;;;23.70;15.33;;;;;;;;;;4971124;28;20710;-72
2024/03/08 09:32:51;;;;;;;21.77;14.23;;;;;;;;;;4968173;28;20185;-72
2024/03/08 09:35:16;;;;;;;23.97;14.80;;;;;;;;;;4969793;28;20180;-72
2024/03/08 09:37:41;;;;;;;24.53;14.07;;;;;;;;;;4970217;28;20196;-71
2024/03/08 09:40:09;;;;;;;26.03;14.63;;;;;;;;;;4970010;28;20243;-71
2024/03/08 09:42:37;;;;;;;21.80;13.33;;;;;;;;;;4963507;28;20188;-71
2024/03/08 09:45:04;;;;;;;23.10;13.30;;;;;;;;;;4965459;28;20230;-72
2024/03/08 09:47:33;;;;;;;22.40;13.90;;;;;;;;;;4962468;28;20222;-71
2024/03/08 09:49:58;;;;;;;22.90;14.10;;;;;;;;;;4967272;28;20211;-71
2024/03/08 09:52:24;;;;;;;23.57;13.40;;;;;;;;;;4970196;28;20215;-71
2024/03/08 09:54:49;;;;;;;24.00;14.20;;;;;;;;;;4964316;28;20195;-71
2024/03/08 09:57:15;;;;;;;24.60;14.43;;;;;;;;;;4966865;28;20264;-71
2024/03/08 10:02:05;;;;;;;23.33;13.43;;;;;;;;;;4957560;28;20944;-71
2024/03/08 10:04:31;;;;;;;24.63;14.20;;;;;;;;;;4967844;28;20192;-71
2024/03/08 10:07:01;;;;;;;24.93;14.43;;;;;;;;;;4966549;28;20610;-71
2024/03/08 10:09:27;;;;;;;26.47;14.30;;;;;;;;;;4966711;28;20264;-72
2024/03/08 10:11:59;;;;;;;23.47;14.00;;;;;;;;;;4964203;28;20204;-72
2024/03/08 10:14:26;;;;;;;26.67;14.83;;;;;;;;;;4962823;28;20184;-72
2024/03/08 10:16:52;;;;;;;28.27;15.60;;;;;;;;;;4963043;28;20235;-71
2024/03/08 10:19:17;;;;;;;21.80;13.77;;;;;;;;;;4969752;28;20184;-71
2024/03/08 10:21:49;;;;;;;22.13;14.60;;;;;;;;;;4965705;28;20214;-72
2024/03/08 10:24:14;;;;;;;21.53;13.80;;;;;;;;;;4969330;28;20239;-71
2024/03/08 10:26:40;;;;;;;21.93;13.57;;;;;;;;;;4966527;28;20172;-72
2024/03/08 10:29:05;;;;;;;22.73;14.90;;;;;;;;;;4969632;28;20618;-72
2024/03/08 10:31:32;;;;;;;20.37;13.50;;;;;;;;;;4963367;28;20196;-71
2024/03/08 10:33:58;;;;;;;21.23;12.90;;;;;;;;;;4965671;28;20177;-71
2024/03/08 10:36:23;;;;;;;21.57;13.67;;;;;;;;;;4962396;28;20183;-72
2024/03/08 10:38:52;;;;;;;23.87;13.93;;;;;;;;;;4958858;28;20641;-72
2024/03/08 10:41:18;;;;;;;23.77;14.43;;;;;;;;;;4967843;28;20624;-72
2024/03/08 10:43:43;;;;;;;24.73;13.83;;;;;;;;;;4968970;28;20246;-71
2024/03/08 10:46:08;;;;;;;23.33;14.37;;;;;;;;;;4969530;28;20267;-72
2024/03/08 10:48:39;;;;;;;21.93;14.13;;;;;;;;;;4967045;28;20176;-72
2024/03/08 10:51:04;;;;;;;23.60;14.17;;;;;;;;;;4968499;28;20235;-72
2024/03/08 10:53:30;;;;;;;24.87;14.27;;;;;;;;;;4969314;28;20224;-72
2024/03/08 10:55:56;;;;;;;24.43;14.07;;;;;;;;;;4966422;28;20176;-72
2024/03/08 10:58:22;;;;;;;26.40;15.63;;;;;;;;;;4968556;28;20604;-72
2024/03/08 11:00:49;;;;;;;28.00;13.87;;;;;;;;;;4974426;28;20212;-72
2024/03/08 11:03:34;;;;;;;21.97;14.13;;;;;;;;;;4969232;28;20272;-72
2024/03/08 11:06:00;;;;;;;21.60;13.07;;;;;;;;;;4972780;28;20287;-72
2024/03/08 11:08:25;;;;;;;21.67;12.60;;;;;;;;;;4974275;28;20184;-72
2024/03/08 11:10:53;;;;;;;20.37;12.80;;;;;;;;;;4968209;28;20214;-71
2024/03/08 11:13:47;;;;;;;18.63;12.70;;;;;;;;;;4964884;28;20207;-72
2024/03/08 11:16:32;;;;;;;21.43;12.50;;;;;;;;;;4956221;28;20215;-72
2024/03/08 11:19:04;;;;;;;20.50;10.98;;;;;;;;;;4964970;28;20247;-71
2024/03/08 11:21:31;;;;;;;20.35;11.90;;;;;;;;;;4969597;28;20306;-72
2024/03/08 11:24:06;;;;;;;17.67;11.15;;;;;;;;;;4971443;28;20177;-72
2024/03/08 11:26:31;;;;;;;18.73;11.50;;;;;;;;;;4971323;28;20650;-72
2024/03/08 11:29:15;;;;;;;17.85;10.95;;;;;;;;;;4965095;28;20172;-72
2024/03/08 11:31:40;;;;;;;17.42;11.75;;;;;;;;;;4971880;28;20192;-72
2024/03/08 11:34:15;;;;;;;18.52;12.15;;;;;;;;;;4971687;28;20178;-73
2024/03/08 11:36:42;;;;;;;15.45;10.50;;;;;;;;;;4972118;28;20180;-72
2024/03/08 11:39:14;;;;;;;21.92;10.68;;;;;;;;;;4968129;28;20732;-71
2024/03/08 11:41:41;;;;;;;15.05;9.90;;;;;;;;;;4967494;28;20714;-72
2024/03/08 11:44:07;;;;;;;16.42;10.52;;;;;;;;;;4965853;28;20184;-72
2024/03/08 11:46:32;;;;;;;17.13;10.98;;;;;;;;;;4968090;28;20601;-72
2024/03/08 11:49:00;;;;;;;19.23;10.77;;;;;;;;;;4971991;28;20179;-72
2024/03/08 11:51:26;;;;;;;14.35;10.43;;;;;;;;;;4969621;28;20196;-71
2024/03/08 11:53:52;;;;;;;18.38;10.40;;;;;;;;;;4973304;28;20226;-72
2024/03/08 11:56:20;;;;;;;14.32;9.82;;;;;;;;;;4966523;28;20181;-72
2024/03/08 11:58:53;;;;;;;16.65;10.60;;;;;;;;;;4970344;28;20180;-72
2024/03/08 12:01:18;;;;;;;14.75;10.40;;;;;;;;;;4971183;28;20196;-72
2024/03/08 12:03:43;;;;;;;18.48;11.23;;;;;;;;;;4969974;28;20203;-72
2024/03/08 12:06:09;;;;;;;13.73;9.75;;;;;;;;;;4973612;28;20732;-72
2024/03/08 12:08:35;;;;;;;17.88;11.20;;;;;;;;;;4972475;28;20515;-72
2024/03/08 12:11:00;;;;;;;17.52;11.25;;;;;;;;;;4970148;28;20211;-72
2024/03/08 12:13:29;;;;;;;17.63;11.43;;;;;;;;;;4971316;28;20173;-72
2024/03/08 12:15:55;;;;;;;15.18;11.15;;;;;;;;;;4971200;28;20206;-71
2024/03/08 12:18:20;;;;;;;20.33;12.68;;;;;;;;;;4972416;28;20235;-71
2024/03/08 12:20:49;;;;;;;17.55;11.55;;;;;;;;;;4963788;28;20724;-72
2024/03/08 12:23:16;;;;;;;18.92;11.65;;;;;;;;;;4971906;28;20630;-73
2024/03/08 12:25:41;;;;;;;17.77;11.25;;;;;;;;;;4964830;28;20494;-72
2024/03/08 12:28:10;;;;;;;15.43;11.23;;;;;;;;;;4967682;28;20447;-72
2024/03/08 12:30:37;;;;;;;18.15;10.90;;;;;;;;;;4967333;28;20208;-73
2024/03/08 12:33:02;;;;;;;15.82;10.52;;;;;;;;;;4970293;28;20263;-73
2024/03/08 12:35:28;;;;;;;16.48;10.43;;;;;;;;;;4972931;28;20283;-72
2024/03/08 12:37:55;;;;;;;18.98;12.13;;;;;;;;;;4965347;28;20606;-72
2024/03/08 12:40:31;;;;;;;16.35;11.43;;;;;;;;;;4969175;28;20211;-72
2024/03/08 12:42:56;;;;;;;18.33;11.52;;;;;;;;;;4968301;28;20194;-72
2024/03/08 12:45:23;;;;;;;19.05;11.25;;;;;;;;;;4968045;28;20204;-72
2024/03/08 12:47:49;;;;;;;15.50;10.45;;;;;;;;;;4969660;28;20588;-71
2024/03/08 12:50:16;;;;;;;19.92;12.32;;;;;;;;;;4964674;28;20188;-72
2024/03/08 12:52:41;;;;;;;19.27;11.95;;;;;;;;;;4967209;28;20242;-72
2024/03/08 12:55:07;;;;;;;17.08;11.30;;;;;;;;;;4968588;28;20606;-71
2024/03/08 12:57:35;;;;;;;19.23;11.18;;;;;;;;;;4969518;28;20184;-72
2024/03/08 13:00:02;;;;;;;16.30;10.82;;;;;;;;;;4968674;28;20188;-72
2024/03/08 13:02:28;;;;;;;18.45;11.48;;;;;;;;;;4962632;28;20607;-72
2024/03/08 13:04:57;;;;;;;18.60;12.20;;;;;;;;;;4970220;28;20208;-72
2024/03/08 13:07:23;;;;;;;19.48;11.65;;;;;;;;;;4965183;28;20277;-72
2024/03/08 13:09:49;;;;;;;18.60;10.65;;;;;;;;;;4970873;28;20176;-72
2024/03/08 13:12:15;;;;;;;18.58;12.70;;;;;;;;;;4966061;28;20251;-72
2024/03/08 13:14:40;;;;;;;16.90;11.68;;;;;;;;;;4969725;28;20344;-72
2024/03/08 13:17:07;;;;;;;16.83;11.15;;;;;;;;;;4985094;28;20299;-72
2024/03/08 13:19:34;;;;;;;16.33;10.70;;;;;;;;;;4960821;28;20176;-72
2024/03/08 13:21:59;;;;;;;17.48;10.98;;;;;;;;;;4962834;28;20219;-72
2024/03/08 13:24:24;;;;;;;17.17;11.18;;;;;;;;;;4964322;28;20668;-70
2024/03/08 13:26:50;;;;;;;16.20;11.52;;;;;;;;;;4970562;28;20177;-72
2024/03/08 13:29:15;;;;;;;18.83;10.65;;;;;;;;;;4970720;28;20207;-73
2024/03/08 13:31:40;;;;;;;17.70;11.82;;;;;;;;;;4967360;28;20200;-71
2024/03/08 13:34:05;;;;;;;19.08;12.77;;;;;;;;;;4964105;28;20649;-70
2024/03/08 13:36:38;;;;;;;18.45;11.10;;;;;;;;;;4970416;28;20220;-71
2024/03/08 13:39:10;;;;;;;20.33;13.15;;;;;;;;;;4968870;28;20525;-71
2024/03/08 13:41:35;;;;;;;20.20;12.63;;;;;;;;;;4969796;28;20208;-71
2024/03/08 13:44:00;;;;;;;21.08;13.05;;;;;;;;;;4964997;28;20188;-71
2024/03/08 13:46:26;;;;;;;20.55;12.38;;;;;;;;;;4964474;28;20540;-72
2024/03/08 13:48:53;;;;;;;19.52;12.20;;;;;;;;;;4966538;28;20177;-72
2024/03/08 13:51:19;;;;;;;20.55;11.27;;;;;;;;;;4968188;28;20758;-72
2024/03/08 13:53:45;;;;;;;15.25;10.93;;;;;;;;;;4970055;28;20176;-71
2024/03/08 13:56:10;;;;;;;20.50;12.40;;;;;;;;;;4960428;28;20667;-71
2024/03/08 13:58:35;;;;;;;19.45;12.88;;;;;;;;;;4966016;28;20226;-71
2024/03/08 14:01:03;;;;;;;23.33;12.57;;;;;;;;;;4967675;28;20298;-71
2024/03/08 14:03:28;;;;;;;18.48;12.25;;;;;;;;;;4965403;28;20659;-72
2024/03/08 14:05:55;;;;;;;17.30;11.00;;;;;;;;;;4968979;28;20266;-72
2024/03/08 14:08:21;;;;;;;20.60;12.10;;;;;;;;;;4969230;28;20176;-71
2024/03/08 14:10:48;;;;;;;19.80;12.25;;;;;;;;;;4966614;28;20199;-71
2024/03/08 14:13:16;;;;;;;21.90;12.73;;;;;;;;;;4967169;28;20545;-71
2024/03/08 14:15:42;;;;;;;19.67;11.88;;;;;;;;;;4966905;28;20184;-71
2024/03/08 14:18:07;;;;;;;19.10;12.00;;;;;;;;;;4968868;28;20267;-71